Time;durP1;ratioP1;P1;durP2;ratioP2;P2;SDS_P1;SDS_P2;PMS_P1;PMS_P2;Temp;Humidity;BMP_temperature;BMP_pressure;BME280_temperature;BME280_humidity;BME280_pressure;Samples;Min_cycle;Max_cycle;Signal;HPM_P1;HPM_P2
2021/07/07 00:00:58;;;;;;;9.50;4.07;;;;;;;12.31;100.00;101140.97;5206538;28;20044;-68
2021/07/07 00:03:29;;;;;;;6.25;3.38;;;;;;;12.27;100.00;101140.47;5203476;28;20396;-68
2021/07/07 00:06:00;;;;;;;6.35;3.58;;;;;;;12.26;100.00;101143.31;5204544;28;20083;-67
2021/07/07 00:08:31;;;;;;;11.32;4.38;;;;;;;12.24;100.00;101146.16;5211121;28;20032;-68
2021/07/07 00:11:02;;;;;;;6.22;3.75;;;;;;;12.26;100.00;101146.00;5186770;28;20024;-68
2021/07/07 00:13:32;;;;;;;6.85;3.85;;;;;;;12.28;100.00;101144.81;5211262;28;20028;-67
2021/07/07 00:16:03;;;;;;;11.90;3.42;;;;;;;12.32;100.00;101137.25;5204826;28;20096;-68
2021/07/07 00:18:34;;;;;;;6.57;4.40;;;;;;;12.39;100.00;101135.56;5201442;28;20052;-68
2021/07/07 00:21:05;;;;;;;6.55;4.15;;;;;;;12.47;100.00;101130.16;5204312;28;20195;-68
2021/07/07 00:23:35;;;;;;;8.15;3.67;;;;;;;12.50;100.00;101126.28;5219156;28;20057;-68
2021/07/07 00:26:06;;;;;;;13.70;3.85;;;;;;;12.51;100.00;101133.34;5238876;28;20005;-70
2021/07/07 00:28:36;;;;;;;6.07;3.75;;;;;;;12.52;100.00;101130.50;5228249;28;20028;-67
2021/07/07 00:31:07;;;;;;;7.68;3.80;;;;;;;12.50;100.00;101129.84;5207868;28;20097;-67
2021/07/07 00:33:37;;;;;;;9.32;3.90;;;;;;;12.53;100.00;101128.63;5208997;28;20398;-68
2021/07/07 00:36:08;;;;;;;9.05;4.95;;;;;;;12.57;100.00;101129.97;5209843;28;20036;-68
2021/07/07 00:38:38;;;;;;;9.55;4.38;;;;;;;12.60;100.00;101143.94;5210929;28;20023;-68
2021/07/07 00:41:09;;;;;;;5.57;3.75;;;;;;;12.63;100.00;101140.03;5208275;28;20614;-68
2021/07/07 00:43:40;;;;;;;6.55;4.10;;;;;;;12.65;100.00;101141.56;5205066;28;20020;-67
2021/07/07 00:46:10;;;;;;;7.00;4.60;;;;;;;12.70;100.00;101151.78;5207956;28;20021;-68
2021/07/07 00:48:43;;;;;;;11.25;4.20;;;;;;;12.76;100.00;101148.44;5214154;28;20029;-67
2021/07/07 00:51:14;;;;;;;10.10;5.30;;;;;;;12.80;100.00;101144.38;5208266;28;20196;-68
2021/07/07 00:53:47;;;;;;;9.20;4.20;;;;;;;12.89;100.00;101164.03;5212270;28;20029;-67
2021/07/07 00:56:18;;;;;;;9.35;4.10;;;;;;;12.93;100.00;101158.13;5208745;28;20021;-68
2021/07/07 00:58:52;;;;;;;11.98;4.28;;;;;;;12.99;100.00;101151.19;5212671;28;20104;-68
2021/07/07 01:01:23;;;;;;;11.25;4.30;;;;;;;13.04;100.00;101154.19;5215749;28;20025;-67
2021/07/07 01:03:53;;;;;;;8.00;4.18;;;;;;;13.08;100.00;101158.22;5202526;28;20446;-68
2021/07/07 01:06:24;;;;;;;6.88;4.15;;;;;;;13.15;100.00;101163.75;5198580;28;20027;-67
2021/07/07 01:08:55;;;;;;;7.70;4.60;;;;;;;13.25;100.00;101169.78;5211880;28;20029;-68
2021/07/07 01:11:25;;;;;;;11.77;4.30;;;;;;;13.32;100.00;101169.94;5214720;28;20483;-67
2021/07/07 01:13:56;;;;;;;13.18;4.30;;;;;;;13.37;100.00;101167.56;5212099;28;20024;-68
2021/07/07 01:16:27;;;;;;;8.60;4.25;;;;;;;13.40;100.00;101169.88;5214824;28;20020;-68
2021/07/07 01:18:58;;;;;;;7.60;3.20;;;;;;;13.42;100.00;101157.09;5205553;28;20104;-68
2021/07/07 01:21:28;;;;;;;6.93;3.03;;;;;;;13.48;100.00;101154.50;5212043;28;20432;-67
2021/07/07 01:23:59;;;;;;;6.80;3.72;;;;;;;13.49;100.00;101147.25;5203585;28;20033;-67
2021/07/07 01:26:30;;;;;;;14.15;3.92;;;;;;;13.50;100.00;101150.78;5203695;28;20029;-67
2021/07/07 01:29:00;;;;;;;5.70;3.55;;;;;;;13.48;100.00;101124.88;5207640;28;20108;-68
2021/07/07 01:31:31;;;;;;;7.07;3.55;;;;;;;13.50;100.00;101121.16;5200060;28;20025;-67
2021/07/07 01:34:01;;;;;;;13.45;3.88;;;;;;;13.54;100.00;101119.78;5207205;28;20080;-67
2021/07/07 01:36:33;;;;;;;11.45;3.97;;;;;;;13.54;100.00;101122.47;5207744;28;20029;-67
2021/07/07 01:39:07;;;;;;;8.98;3.97;;;;;;;13.52;100.00;101129.91;5206171;28;20018;-68
2021/07/07 01:41:38;;;;;;;8.88;3.63;;;;;;;13.51;100.00;101121.00;5209396;28;20020;-67
2021/07/07 01:44:09;;;;;;;6.85;3.60;;;;;;;13.58;100.00;101119.25;5204441;28;20279;-67
2021/07/07 01:46:40;;;;;;;7.80;3.83;;;;;;;13.56;100.00;101115.91;5210971;28;20029;-67
2021/07/07 01:49:10;;;;;;;9.98;4.25;;;;;;;13.57;100.00;101119.44;5203699;28;20080;-68
2021/07/07 01:51:41;;;;;;;9.32;3.80;;;;;;;13.52;100.00;101117.28;5215140;28;20448;-68
2021/07/07 01:54:12;;;;;;;10.73;4.13;;;;;;;13.50;100.00;101121.97;5211844;28;20033;-67
2021/07/07 01:56:43;;;;;;;11.27;4.38;;;;;;;13.48;100.00;101124.88;5204531;28;20154;-67
2021/07/07 01:59:13;;;;;;;10.50;4.45;;;;;;;13.54;100.00;101117.91;5202836;28;20448;-67
2021/07/07 02:01:46;;;;;;;10.73;4.65;;;;;;;13.54;100.00;101134.09;5209980;28;20566;-67
2021/07/07 02:04:17;;;;;;;14.43;5.15;;;;;;;13.54;100.00;101142.19;5210878;28;20100;-67
2021/07/07 02:06:49;;;;;;;7.90;4.65;;;;;;;13.53;100.00;101134.28;5208601;28;20029;-67
2021/07/07 02:09:19;;;;;;;9.10;4.32;;;;;;;13.52;100.00;101133.44;5212783;28;20475;-67
2021/07/07 02:11:50;;;;;;;8.10;4.63;;;;;;;13.50;100.00;101131.94;5201034;28;20029;-68
2021/07/07 02:14:21;;;;;;;13.48;4.32;;;;;;;13.46;100.00;101136.84;5212740;28;20513;-67
2021/07/07 02:16:52;;;;;;;6.90;3.90;;;;;;;13.43;100.00;101139.91;5208482;28;20026;-68
2021/07/07 02:19:22;;;;;;;10.07;4.97;;;;;;;13.40;100.00;101133.03;5205355;28;21043;-68
2021/07/07 02:21:53;;;;;;;13.10;4.63;;;;;;;13.36;100.00;101136.25;5211455;28;20036;-68
2021/07/07 02:24:23;;;;;;;8.25;4.07;;;;;;;13.32;100.00;101134.91;5204319;28;20034;-68
2021/07/07 02:26:54;;;;;;;7.88;4.72;;;;;;;13.27;100.00;101138.13;5214640;28;20025;-68
2021/07/07 02:29:24;;;;;;;10.55;4.13;;;;;;;13.25;100.00;101129.38;5203633;28;20053;-68
2021/07/07 02:31:55;;;;;;;12.88;5.22;;;;;;;13.22;100.00;101132.44;5206065;28;20100;-68
2021/07/07 02:34:25;;;;;;;7.97;4.63;;;;;;;13.20;100.00;101129.91;5211770;28;20423;-68
2021/07/07 02:36:56;;;;;;;7.32;4.57;;;;;;;13.21;100.00;101130.72;5216352;28;20025;-67
2021/07/07 02:39:26;;;;;;;7.03;4.20;;;;;;;13.25;100.00;101126.69;5212695;28;20048;-68
2021/07/07 02:41:57;;;;;;;7.18;4.40;;;;;;;13.34;100.00;101124.78;5218812;28;20028;-67
2021/07/07 02:44:27;;;;;;;11.13;4.90;;;;;;;13.35;100.00;101126.47;5212074;28;20352;-67
2021/07/07 02:46:58;;;;;;;7.03;4.20;;;;;;;13.34;100.00;101131.00;5208273;28;20024;-68
2021/07/07 02:49:28;;;;;;;9.90;4.55;;;;;;;13.34;100.00;101132.88;5216498;28;20394;-67
2021/07/07 02:51:59;;;;;;;10.23;5.00;;;;;;;13.33;100.00;101133.91;5222193;28;20143;-68
2021/07/07 02:54:29;;;;;;;10.48;4.53;;;;;;;13.31;100.00;101139.47;5218780;28;20108;-68
2021/07/07 02:57:00;;;;;;;7.70;4.20;;;;;;;13.30;100.00;101135.06;5210210;28;20031;-68
2021/07/07 02:59:30;;;;;;;10.00;4.28;;;;;;;13.26;100.00;101131.06;5208383;28;20013;-67
2021/07/07 03:02:01;;;;;;;9.95;4.38;;;;;;;13.26;100.00;101132.94;5209326;28;20024;-68
2021/07/07 03:04:32;;;;;;;8.00;4.40;;;;;;;13.23;100.00;101127.88;5205925;28;20502;-67
2021/07/07 03:07:06;;;;;;;7.35;4.38;;;;;;;13.19;100.00;101133.59;5208198;28;20036;-67
2021/07/07 03:09:36;;;;;;;9.57;4.32;;;;;;;13.16;100.00;101135.81;5210974;28;20025;-68
2021/07/07 03:12:07;;;;;;;8.77;4.97;;;;;;;13.14;100.00;101137.81;5207161;28;20053;-68
2021/07/07 03:14:37;;;;;;;10.55;4.53;;;;;;;13.12;100.00;101138.00;5212519;28;20036;-67
2021/07/07 03:17:12;;;;;;;9.88;4.25;;;;;;;13.11;100.00;101138.19;5206568;28;20100;-68
2021/07/07 03:19:42;;;;;;;8.00;4.60;;;;;;;13.11;100.00;101136.34;5208348;28;20025;-68
2021/07/07 03:22:13;;;;;;;9.30;4.90;;;;;;;13.10;100.00;101137.34;5210143;28;20398;-67
2021/07/07 03:24:43;;;;;;;7.00;4.82;;;;;;;13.09;100.00;101142.91;5211214;28;20065;-68
2021/07/07 03:27:14;;;;;;;9.82;4.75;;;;;;;13.11;100.00;101141.72;5212548;28;20017;-68
2021/07/07 03:29:44;;;;;;;8.55;4.95;;;;;;;13.14;100.00;101138.66;5210561;28;20382;-67
2021/07/07 03:32:14;;;;;;;10.70;5.10;;;;;;;13.15;100.00;101145.75;5206113;28;20020;-68
2021/07/07 03:34:45;;;;;;;13.95;5.25;;;;;;;13.18;100.00;101148.06;5208480;28;20368;-68
2021/07/07 03:37:16;;;;;;;12.10;5.15;;;;;;;13.19;100.00;101141.66;5213801;28;20043;-68
2021/07/07 03:39:46;;;;;;;11.30;4.32;;;;;;;13.21;100.00;101145.06;5214384;28;20022;-68
2021/07/07 03:42:17;;;;;;;6.55;3.80;;;;;;;13.24;100.00;101151.13;5218845;28;20279;-68
2021/07/07 03:44:47;;;;;;;11.00;4.47;;;;;;;13.28;100.00;101155.13;5209540;22;20544;-80
2021/07/07 03:47:18;;;;;;;10.52;4.95;;;;;;;13.30;100.00;101158.47;5201804;28;20043;-80
2021/07/07 03:49:49;;;;;;;9.10;4.30;;;;;;;13.30;100.00;101164.72;5201386;28;20800;-80
2021/07/07 03:52:20;;;;;;;9.45;5.05;;;;;;;13.31;100.00;101166.41;5192605;28;20025;-80
2021/07/07 03:54:50;;;;;;;12.27;4.82;;;;;;;13.32;100.00;101164.56;5193460;28;20032;-79
2021/07/07 03:57:21;;;;;;;9.38;4.10;;;;;;;13.34;100.00;101166.03;5189742;28;20555;-80
2021/07/07 03:59:51;;;;;;;10.38;4.35;;;;;;;13.36;100.00;101174.81;5194190;28;20029;-79
2021/07/07 04:02:22;;;;;;;10.57;4.32;;;;;;;13.41;100.00;101172.41;5194220;28;20018;-80
2021/07/07 04:04:52;;;;;;;12.25;4.72;;;;;;;13.43;100.00;101173.06;5181166;28;20032;-80
2021/07/07 04:07:23;;;;;;;8.45;4.60;;;;;;;13.43;100.00;101178.47;5180890;28;20021;-80
2021/07/07 04:09:53;;;;;;;11.05;4.72;;;;;;;13.47;100.00;101177.09;5180339;28;20104;-80
2021/07/07 04:12:24;;;;;;;12.68;5.18;;;;;;;13.49;100.00;101182.31;5180765;28;20040;-80
2021/07/07 04:14:55;;;;;;;11.63;5.70;;;;;;;13.50;100.00;101183.97;5181079;28;20243;-80
2021/07/07 04:17:25;;;;;;;8.32;4.15;;;;;;;13.53;100.00;101193.56;5180484;28;20098;-79
2021/07/07 04:19:56;;;;;;;10.85;5.07;;;;;;;13.56;100.00;101191.38;5198346;28;20029;-79
2021/07/07 04:22:26;;;;;;;11.40;4.93;;;;;;;13.61;100.00;101194.38;5183088;28;20076;-80
2021/07/07 04:24:57;;;;;;;8.60;4.32;;;;;;;13.63;100.00;101189.63;5185968;28;20038;-80
2021/07/07 04:27:28;;;;;;;13.52;5.30;;;;;;;13.67;100.00;101190.97;5162990;28;20240;-80
2021/07/07 04:29:58;;;;;;;8.95;4.07;;;;;;;13.68;100.00;101197.19;5183620;28;20396;-80
2021/07/07 04:32:29;;;;;;;7.70;4.30;;;;;;;13.68;100.00;101202.59;5200717;28;20021;-79
2021/07/07 04:34:59;;;;;;;10.85;3.75;;;;;;;13.66;100.00;101202.78;5183545;28;20619;-79
2021/07/07 04:37:30;;;;;;;9.23;4.10;;;;;;;13.62;100.00;101204.13;5184587;28;20114;-79
2021/07/07 04:40:00;;;;;;;9.90;3.72;;;;;;;13.61;100.00;101215.94;5167817;28;20021;-79
2021/07/07 04:42:31;;;;;;;8.85;3.95;;;;;;;13.58;100.00;101210.06;5180071;28;20089;-79
2021/07/07 04:45:02;;;;;;;10.15;4.25;;;;;;;13.49;100.00;101211.94;5180429;28;20037;-80
2021/07/07 04:47:33;;;;;;;17.90;4.75;;;;;;;13.48;100.00;101221.91;5198536;28;20036;-79
2021/07/07 04:50:06;;;;;;;11.30;4.97;;;;;;;13.47;100.00;101222.91;5200990;28;20033;-80
2021/07/07 04:52:37;;;;;;;11.32;4.38;;;;;;;13.42;100.00;101221.78;5180229;28;20021;-79
2021/07/07 04:55:11;;;;;;;14.07;4.38;;;;;;;13.41;100.00;101226.31;5194746;28;20462;-80
2021/07/07 04:57:42;;;;;;;12.30;4.53;;;;;;;13.53;100.00;101223.22;5191363;28;20093;-79
2021/07/07 05:00:18;;;;;;;7.82;4.30;;;;;;;13.57;100.00;101228.09;5173536;28;20021;-79
2021/07/07 05:02:50;;;;;;;14.50;4.53;;;;;;;13.65;100.00;101224.50;5189288;28;20360;-79
2021/07/07 05:05:22;;;;;;;11.43;4.22;;;;;;;13.73;100.00;101230.69;5187809;28;20026;-79
2021/07/07 05:07:52;;;;;;;15.15;4.35;;;;;;;13.85;100.00;101232.97;5179878;28;20033;-79
2021/07/07 05:10:23;;;;;;;8.13;4.13;;;;;;;13.96;100.00;101235.28;5179021;28;20029;-79
2021/07/07 05:12:53;;;;;;;12.73;4.47;;;;;;;14.07;100.00;101226.75;5179619;28;20103;-79
2021/07/07 05:15:24;;;;;;;17.60;4.55;;;;;;;14.17;100.00;101224.66;5179849;28;20123;-79
2021/07/07 05:17:54;;;;;;;15.48;4.35;;;;;;;14.33;100.00;101230.94;5194570;28;20047;-79
2021/07/07 05:20:25;;;;;;;11.20;3.95;;;;;;;14.49;100.00;101230.84;5186341;28;20032;-80
2021/07/07 05:22:56;;;;;;;14.93;4.13;;;;;;;14.63;100.00;101227.34;5179537;28;20484;-79
2021/07/07 05:25:26;;;;;;;10.88;3.55;;;;;;;14.76;100.00;101227.56;5179815;28;20022;-80
2021/07/07 05:27:57;;;;;;;19.25;4.93;;;;;;;15.08;100.00;101236.31;5189878;28;20104;-79
2021/07/07 05:30:28;;;;;;;16.08;3.72;;;;;;;15.94;100.00;101234.69;5193418;28;20029;-79
2021/07/07 05:33:00;;;;;;;11.20;3.08;;;;;;;17.20;100.00;101243.03;5199558;28;20036;-80
2021/07/07 05:35:31;;;;;;;14.45;3.15;;;;;;;18.44;100.00;101231.97;5199456;28;20075;-80
2021/07/07 05:38:03;;;;;;;7.93;2.35;;;;;;;19.15;100.00;101242.97;5200042;28;20492;-80
2021/07/07 05:40:33;;;;;;;11.32;3.03;;;;;;;19.78;100.00;101251.38;5193468;28;20029;-80
2021/07/07 05:43:04;;;;;;;9.35;2.35;;;;;;;20.36;100.00;101242.19;5179889;28;20072;-80
2021/07/07 05:45:34;;;;;;;8.13;2.72;;;;;;;20.53;100.00;101253.41;5179155;28;20025;-81
2021/07/07 05:48:05;;;;;;;10.98;2.17;;;;;;;20.93;100.00;101252.00;5179282;28;20048;-81
2021/07/07 05:50:35;;;;;;;13.48;2.60;;;;;;;21.31;100.00;101251.00;5179343;28;20042;-81
2021/07/07 05:53:06;;;;;;;12.18;2.85;;;;;;;21.31;100.00;101256.44;5182560;28;20030;-81
2021/07/07 05:55:37;;;;;;;8.82;2.08;;;;;;;21.70;100.00;101265.22;5178795;28;20025;-81
2021/07/07 05:58:07;;;;;;;9.35;2.47;;;;;;;21.69;100.00;101266.28;5190263;28;20407;-82
2021/07/07 06:00:38;;;;;;;5.30;2.00;;;;;;;22.65;100.00;101267.22;5178533;28;20088;-82
2021/07/07 06:03:10;;;;;;;11.52;2.50;;;;;;;23.49;100.00;101262.28;5179079;28;20113;-81
2021/07/07 06:05:40;;;;;;;8.10;2.65;;;;;;;22.21;100.00;101266.66;5179036;28;20125;-82
2021/07/07 06:08:11;;;;;;;8.90;2.38;;;;;;;22.87;100.00;101259.25;5179047;28;20104;-82
2021/07/07 06:10:43;;;;;;;11.90;2.45;;;;;;;22.65;100.00;101265.31;5178517;28;20030;-81
2021/07/07 06:13:13;;;;;;;6.82;2.20;;;;;;;22.81;100.00;101269.25;5179691;28;20104;-82
2021/07/07 06:15:44;;;;;;;8.02;1.95;;;;;;;22.98;100.00;101270.22;5183679;28;20429;-81
2021/07/07 06:18:15;;;;;;;8.43;2.28;;;;;;;22.74;100.00;101273.97;5199365;28;20040;-83
2021/07/07 06:20:45;;;;;;;9.55;2.33;;;;;;;23.05;100.00;101275.59;5193319;28;20029;-82
2021/07/07 06:23:16;;;;;;;6.18;1.98;;;;;;;23.08;100.00;101271.53;5182707;28;20033;-82
2021/07/07 06:25:46;;;;;;;7.38;2.55;;;;;;;23.35;100.00;101278.19;5166470;28;20040;-82
2021/07/07 06:28:17;;;;;;;11.95;2.45;;;;;;;23.56;100.00;101287.66;5187318;28;20128;-83
2021/07/07 06:30:47;;;;;;;11.63;2.42;;;;;;;23.69;100.00;101287.38;5203271;28;20036;-82
2021/07/07 06:33:18;;;;;;;11.18;2.03;;;;;;;23.57;100.00;101286.56;5203364;28;20488;-80
2021/07/07 06:35:48;;;;;;;13.52;2.50;;;;;;;23.56;100.00;101295.88;5202841;28;20622;-83
2021/07/07 06:38:19;;;;;;;7.20;2.13;;;;;;;23.69;100.00;101290.13;5203370;28;20531;-81
2021/07/07 06:40:49;;;;;;;11.18;2.00;;;;;;;23.99;100.00;101294.56;5202404;28;20502;-81
2021/07/07 06:43:20;;;;;;;8.35;2.08;;;;;;;23.92;100.00;101289.22;5195351;28;20061;-81
2021/07/07 06:45:50;;;;;;;7.00;2.10;;;;;;;23.47;100.00;101289.94;5182600;28;20029;-79
2021/07/07 06:48:21;;;;;;;6.65;2.38;;;;;;;23.67;100.00;101299.69;5182572;28;20026;-80
2021/07/07 06:50:53;;;;;;;10.55;2.67;;;;;;;23.14;100.00;101289.72;5181968;28;20374;-79
2021/07/07 06:53:25;;;;;;;13.40;2.50;;;;;;;22.50;100.00;101300.47;5196039;28;20058;-80
2021/07/07 06:55:55;;;;;;;12.65;2.03;;;;;;;22.04;100.00;101298.38;5195925;28;20026;-80
2021/07/07 06:58:26;;;;;;;10.73;2.42;;;;;;;21.32;100.00;101292.75;5194213;28;20029;-81
2021/07/07 07:00:56;;;;;;;7.28;2.67;;;;;;;20.41;100.00;101294.97;5183399;28;20473;-80
2021/07/07 07:03:27;;;;;;;30.92;3.50;;;;;;;20.08;100.00;101313.38;5182392;28;20541;-80
2021/07/07 07:05:57;;;;;;;10.88;2.33;;;;;;;19.77;100.00;101306.84;5192198;28;20075;-80
2021/07/07 07:08:28;;;;;;;8.30;2.35;;;;;;;19.81;100.00;101308.06;5182477;28;20352;-80
2021/07/07 07:10:58;;;;;;;13.13;2.90;;;;;;;19.60;100.00;101311.94;5181830;28;20076;-80
2021/07/07 07:13:29;;;;;;;12.98;2.65;;;;;;;19.58;100.00;101315.91;5183516;28;20030;-84
2021/07/07 07:16:00;;;;;;;8.55;2.75;;;;;;;19.45;100.00;101315.94;5182187;28;20049;-80
2021/07/07 07:18:30;;;;;;;13.20;2.67;;;;;;;19.81;100.00;101321.69;5198951;28;20045;-80
2021/07/07 07:21:01;;;;;;;10.25;2.60;;;;;;;20.33;100.00;101330.66;5201985;28;20300;-79
2021/07/07 07:23:32;;;;;;;11.00;2.58;;;;;;;20.41;100.00;101343.19;5184175;28;20105;-80
2021/07/07 07:26:03;;;;;;;7.63;2.63;;;;;;;19.90;100.00;101336.75;5189037;28;20427;-81
2021/07/07 07:28:34;;;;;;;12.98;3.00;;;;;;;19.13;100.00;101335.66;5195285;28;20033;-80
2021/07/07 07:31:05;;;;;;;10.40;3.38;;;;;;;19.17;100.00;101330.63;5181909;28;20030;-80
2021/07/07 07:33:36;;;;;;;8.35;3.00;;;;;;;19.15;100.00;101341.72;5180236;28;20018;-79
2021/07/07 07:36:07;;;;;;;11.93;2.90;;;;;;;19.35;100.00;101335.41;5180845;28;20034;-82
2021/07/07 07:38:44;;;;;;;12.75;2.60;;;;;;;19.79;100.00;101339.31;5197058;28;20030;-80
2021/07/07 07:41:20;;;;;;;11.32;2.50;;;;;;;20.36;100.00;101343.84;5162536;28;20029;-81
2021/07/07 07:43:54;;;;;;;14.75;3.20;;;;;;;20.31;100.00;101351.00;5167597;28;20040;-81
2021/07/07 07:46:30;;;;;;;12.27;2.88;;;;;;;20.53;100.00;101346.06;5165718;28;20068;-81
2021/07/07 07:49:05;;;;;;;11.82;2.97;;;;;;;20.75;100.00;101341.09;5180146;28;20037;-81
2021/07/07 07:51:41;;;;;;;9.02;2.65;;;;;;;20.68;100.00;101346.56;5167988;28;20145;-80
2021/07/07 07:54:12;;;;;;;6.43;2.53;;;;;;;20.49;100.00;101353.03;5171691;28;20295;-80
2021/07/07 07:56:45;;;;;;;8.77;2.72;;;;;;;20.76;100.00;101346.31;5196087;28;20447;-80
2021/07/07 07:59:16;;;;;;;10.95;2.67;;;;;;;21.06;100.00;101348.38;5179589;28;20488;-80
2021/07/07 08:01:46;;;;;;;12.05;3.00;;;;;;;20.87;100.00;101353.78;5182359;28;20036;-79
2021/07/07 08:04:18;;;;;;;9.15;2.78;;;;;;;21.27;100.00;101360.78;5187879;28;20485;-79
2021/07/07 08:06:49;;;;;;;7.05;2.72;;;;;;;21.01;100.00;101370.88;5184956;28;20033;-80
2021/07/07 08:09:20;;;;;;;8.38;2.70;;;;;;;20.85;100.00;101364.09;5191765;28;20411;-80
2021/07/07 08:11:52;;;;;;;8.10;3.17;;;;;;;20.75;100.00;101363.75;5183772;28;20036;-80
2021/07/07 08:14:23;;;;;;;8.35;2.50;;;;;;;21.21;100.00;101362.50;5183982;28;20014;-81
2021/07/07 08:17:02;;;;;;;16.70;2.83;;;;;;;21.59;100.00;101364.28;5189912;28;20026;-80
2021/07/07 08:19:32;;;;;;;4.72;2.08;;;;;;;21.42;100.00;101358.56;5180215;28;20033;-80
2021/07/07 08:22:03;;;;;;;7.50;2.22;;;;;;;21.10;100.00;101377.72;5186609;28;20037;-81
2021/07/07 08:24:33;;;;;;;7.07;2.53;;;;;;;21.09;100.00;101367.88;5162332;28;20285;-81
2021/07/07 08:27:04;;;;;;;9.02;2.33;;;;;;;20.96;100.00;101376.16;5180134;28;20160;-80
2021/07/07 08:29:36;;;;;;;5.55;1.95;;;;;;;20.73;100.00;101376.75;5161994;28;20036;-80
2021/07/07 08:32:07;;;;;;;6.63;2.33;;;;;;;20.89;100.00;101380.84;5186554;28;20109;-80
2021/07/07 08:34:38;;;;;;;5.97;2.65;;;;;;;21.16;100.00;101382.28;5194574;28;20052;-80
2021/07/07 08:37:08;;;;;;;9.50;2.80;;;;;;;21.11;100.00;101382.13;5199838;28;20025;-81
2021/07/07 08:39:39;;;;;;;8.43;2.35;;;;;;;21.00;100.00;101390.19;5181673;28;20413;-80
2021/07/07 08:42:10;;;;;;;10.70;2.90;;;;;;;21.12;100.00;101385.69;5183478;28;20141;-81
2021/07/07 08:44:42;;;;;;;13.98;2.67;;;;;;;21.72;100.00;101384.06;5189031;28;20245;-79
2021/07/07 08:47:13;;;;;;;9.52;2.40;;;;;;;22.04;100.00;101388.53;5195366;28;20021;-80
2021/07/07 08:49:44;;;;;;;5.95;2.17;;;;;;;21.65;100.00;101386.03;5178774;28;20032;-80
2021/07/07 08:52:16;;;;;;;10.60;2.22;;;;;;;21.64;100.00;101391.75;5197059;28;20484;-80
2021/07/07 08:54:48;;;;;;;8.38;2.50;;;;;;;21.34;100.00;101400.63;5179381;28;20327;-81
2021/07/07 08:57:48;;;;;;;9.98;2.40;;;;;;;21.38;100.00;101390.09;5184812;28;20108;-80
2021/07/07 09:00:53;;;;;;;10.65;2.70;;;;;;;21.44;100.00;101392.78;5184418;28;20036;-80
2021/07/07 09:03:24;;;;;;;7.05;2.33;;;;;;;21.68;100.00;101407.41;5186501;28;20083;-80
2021/07/07 09:06:03;;;;;;;7.82;2.53;;;;;;;21.58;100.00;101400.81;5185062;28;20061;-81
2021/07/07 09:08:36;;;;;;;6.07;2.83;;;;;;;21.41;100.00;101404.13;5179656;28;20528;-80
2021/07/07 09:11:19;;;;;;;10.15;2.88;;;;;;;21.23;100.00;101406.78;5181882;28;20469;-81
2021/07/07 09:14:07;;;;;;;8.10;2.65;;;;;;;20.95;100.00;101408.06;5190790;28;20025;-80
2021/07/07 09:16:50;;;;;;;6.65;2.55;;;;;;;21.39;100.00;101419.91;5179319;28;20018;-81
2021/07/07 09:19:26;;;;;;;5.95;2.20;;;;;;;22.00;100.00;101420.13;5194824;28;20034;-79
2021/07/07 09:22:05;;;;;;;6.78;2.20;;;;;;;22.51;100.00;101427.91;5160430;28;20022;-80
2021/07/07 09:24:45;;;;;;;7.93;2.20;;;;;;;22.60;100.00;101425.69;5178709;28;20037;-79
2021/07/07 09:27:17;;;;;;;5.28;2.00;;;;;;;22.33;100.00;101436.94;5187278;28;20116;-80
2021/07/07 09:29:53;;;;;;;7.18;2.75;;;;;;;22.28;100.00;101431.34;5178338;28;20436;-80
2021/07/07 09:32:27;;;;;;;9.15;2.50;;;;;;;21.94;100.00;101430.91;5196444;28;20026;-80
2021/07/07 09:35:00;;;;;;;12.25;2.80;;;;;;;21.28;100.00;101438.84;5198706;28;20128;-80
2021/07/07 09:37:38;;;;;;;6.65;2.63;;;;;;;20.72;100.00;101445.13;5198606;28;20021;-80
2021/07/07 09:40:11;;;;;;;11.18;3.08;;;;;;;21.09;100.00;101436.06;5189521;28;20067;-80
2021/07/07 09:42:45;;;;;;;6.97;2.55;;;;;;;21.54;100.00;101437.84;5179256;28;20126;-80
2021/07/07 09:45:19;;;;;;;8.00;2.72;;;;;;;21.70;100.00;101442.72;5177866;28;20034;-81
2021/07/07 09:47:50;;;;;;;11.13;2.70;;;;;;;21.94;100.00;101438.25;5190195;28;20056;-80
2021/07/07 09:50:20;;;;;;;9.13;3.03;;;;;;;22.20;100.00;101437.16;5198300;28;20021;-81
2021/07/07 09:52:52;;;;;;;6.03;2.60;;;;;;;22.14;100.00;101448.97;5187332;28;20303;-80
2021/07/07 09:55:23;;;;;;;10.35;2.78;;;;;;;21.69;100.00;101441.88;5195467;28;20086;-80
2021/07/07 09:57:55;;;;;;;11.77;2.85;;;;;;;21.62;100.00;101448.44;5195482;28;20399;-80
2021/07/07 10:00:25;;;;;;;10.23;2.80;;;;;;;21.33;100.00;101453.53;5190361;28;20029;-81
2021/07/07 10:02:57;;;;;;;8.90;2.97;;;;;;;21.41;100.00;101456.00;5177565;28;20469;-80
2021/07/07 10:05:35;;;;;;;6.65;3.30;;;;;;;21.15;100.00;101461.63;5183786;28;20036;-81
2021/07/07 10:08:07;;;;;;;9.98;3.30;;;;;;;21.20;100.00;101454.44;5177942;28;20022;-80
2021/07/07 10:10:38;;;;;;;8.32;2.92;;;;;;;21.49;100.00;101463.06;5177759;28;20091;-81
2021/07/07 10:13:10;;;;;;;5.63;2.47;;;;;;;22.09;100.00;101459.72;5178166;28;20488;-80
2021/07/07 10:15:41;;;;;;;6.28;2.30;;;;;;;22.37;100.00;101465.50;5178301;28;20057;-81
2021/07/07 10:18:11;;;;;;;7.18;2.33;;;;;;;22.89;96.70;101473.25;5191288;28;20055;-81
2021/07/07 10:20:42;;;;;;;7.60;2.13;;;;;;;22.77;94.55;101464.97;5183839;28;20033;-80
2021/07/07 10:23:13;;;;;;;3.83;2.45;;;;;;;22.61;100.00;101482.03;5177569;28;20516;-82
2021/07/07 10:25:45;;;;;;;10.23;2.65;;;;;;;22.53;100.00;101474.13;5178197;28;20056;-80
2021/07/07 10:28:16;;;;;;;5.82;2.10;;;;;;;22.25;100.00;101467.34;5183537;28;20022;-80
2021/07/07 10:30:51;;;;;;;8.75;2.95;;;;;;;22.62;100.00;101475.50;5198122;28;20473;-81
2021/07/07 10:33:22;;;;;;;;;;;;;;;22.74;100.00;101476.38;5198077;28;20222;-81
2021/07/07 10:36:16;;;;;;;6.47;2.63;;;;;;;22.76;93.31;101471.53;5198300;28;19909;-80
2021/07/07 10:38:54;;;;;;;18.13;2.85;;;;;;;22.36;100.00;101471.22;5198254;28;20488;-81
2021/07/07 10:41:46;;;;;;;6.80;2.25;;;;;;;22.44;100.00;101477.22;5163440;28;20038;-81
2021/07/07 10:44:22;;;;;;;4.68;2.60;;;;;;;22.38;100.00;101480.84;5177900;28;20397;-81
2021/07/07 10:47:18;;;;;;;7.97;2.55;;;;;;;22.58;100.00;101483.31;5177872;28;20034;-80
2021/07/07 10:49:54;;;;;;;4.05;2.50;;;;;;;22.47;100.00;101484.94;5178423;28;20499;-80
2021/07/07 10:52:40;;;;;;;7.68;2.53;;;;;;;22.49;100.00;101484.69;5196925;28;20026;-80
2021/07/07 10:55:13;;;;;;;5.65;2.75;;;;;;;22.67;100.00;101481.94;5191451;28;20026;-80
2021/07/07 10:57:46;;;;;;;4.65;2.63;;;;;;;22.39;100.00;101484.41;5183813;28;20037;-80
2021/07/07 11:00:38;;;;;;;9.27;2.50;;;;;;;21.94;100.00;101481.97;5178292;28;20472;-80
2021/07/07 11:03:18;;;;;;;7.07;2.75;;;;;;;21.51;100.00;101485.50;5194505;28;20021;-80
2021/07/07 11:05:49;;;;;;;7.60;2.50;;;;;;;21.21;100.00;101488.84;5181850;28;20117;-80
2021/07/07 11:08:20;;;;;;;3.75;2.35;;;;;;;21.20;100.00;101491.81;5180739;28;20496;-80
2021/07/07 11:10:56;;;;;;;10.32;3.22;;;;;;;21.29;100.00;101487.75;5181131;28;20033;-81
2021/07/07 11:13:41;;;;;;;6.43;2.67;;;;;;;21.37;100.00;101487.50;5162764;28;20531;-80
2021/07/07 11:16:12;;;;;;;8.27;2.60;;;;;;;21.54;100.00;101492.44;5181633;28;20025;-82
2021/07/07 11:18:46;;;;;;;7.50;2.50;;;;;;;21.64;100.00;101492.75;5188459;28;20499;-81
2021/07/07 11:21:18;;;;;;;6.85;2.70;;;;;;;21.92;100.00;101490.38;5186307;28;20480;-81
2021/07/07 11:23:48;;;;;;;7.15;2.10;;;;;;;22.15;100.00;101488.91;5182701;28;20026;-81
2021/07/07 11:26:19;;;;;;;6.60;2.80;;;;;;;22.40;100.00;101497.03;5184840;28;20022;-81
2021/07/07 11:28:49;;;;;;;13.07;2.42;;;;;;;22.14;100.00;101488.09;5180378;28;20510;-81
2021/07/07 11:31:20;;;;;;;5.50;2.35;;;;;;;22.42;100.00;101505.81;5191055;28;20026;-81
2021/07/07 11:34:01;;;;;;;5.75;2.50;;;;;;;22.47;100.00;101498.59;5186033;28;20104;-80
2021/07/07 11:36:33;;;;;;;5.30;2.60;;;;;;;22.64;100.00;101504.28;5198822;28;20029;-81